Time;durP1;ratioP1;P1;durP2;ratioP2;P2;SDS_P1;SDS_P2;PMS_P1;PMS_P2;Temp;Humidity;BMP_temperature;BMP_pressure;BME280_temperature;BME280_humidity;BME280_pressure;Samples;Min_cycle;Max_cycle;Signal;HPM_P1;HPM_P2
2024/03/24 00:00:32;;;;;;;7.77;2.60;;;23.70;69.70;;;;;;5064917;28;20194;-72
2024/03/24 00:02:59;;;;;;;3.87;2.37;;;23.70;69.10;;;;;;5056302;28;20245;-71
2024/03/24 00:05:27;;;;;;;7.90;2.50;;;23.90;68.90;;;;;;5073137;28;20598;-72
2024/03/24 00:07:54;;;;;;;6.60;2.83;;;24.00;69.00;;;;;;5072248;28;20300;-70
2024/03/24 00:10:21;;;;;;;4.67;2.40;;;24.10;67.90;;;;;;5069011;28;20233;-71
2024/03/24 00:12:48;;;;;;;4.33;2.43;;;24.10;67.80;;;;;;5075328;28;20209;-70
2024/03/24 00:15:16;;;;;;;5.13;2.67;;;24.20;68.20;;;;;;5073072;28;20191;-69
2024/03/24 00:17:43;;;;;;;6.40;2.40;;;24.20;67.50;;;;;;5074151;28;20256;-71
2024/03/24 00:20:11;;;;;;;5.27;2.57;;;24.20;67.10;;;;;;5055889;28;20179;-71
2024/03/24 00:22:38;;;;;;;6.07;2.87;;;24.30;67.20;;;;;;5073625;28;20600;-72
2024/03/24 00:25:06;;;;;;;4.57;2.30;;;24.50;66.50;;;;;;5071661;28;20637;-71
2024/03/24 00:27:33;;;;;;;5.70;2.27;;;24.50;66.80;;;;;;5073220;28;20206;-72
2024/03/24 00:30:00;;;;;;;6.63;2.50;;;24.70;67.80;;;;;;5071840;28;20183;-71
2024/03/24 00:32:28;;;;;;;6.27;3.17;;;24.70;66.80;;;;;;5072007;28;20193;-71
2024/03/24 00:34:55;;;;;;;3.83;2.33;;;24.70;67.20;;;;;;5072934;28;20303;-72
2024/03/24 00:37:23;;;;;;;5.87;2.90;;;24.80;66.80;;;;;;5080474;28;20182;-69
2024/03/24 00:39:52;;;;;;;5.43;2.97;;;24.70;66.40;;;;;;5074857;28;20207;-69
2024/03/24 00:42:20;;;;;;;5.47;2.80;;;24.70;66.60;;;;;;5079313;28;20538;-68
2024/03/24 00:44:47;;;;;;;3.53;2.40;;;24.70;67.00;;;;;;5080065;28;20843;-71
2024/03/24 00:47:14;;;;;;;5.67;2.93;;;25.10;65.70;;;;;;5077711;28;20656;-69
2024/03/24 00:49:42;;;;;;;4.53;2.60;;;25.30;64.90;;;;;;5074524;28;20218;-72
2024/03/24 00:52:09;;;;;;;4.30;2.47;;;25.60;63.80;;;;;;5073663;28;20175;-69
2024/03/24 00:54:36;;;;;;;6.87;3.03;;;25.50;63.70;;;;;;5074821;28;20179;-71
2024/03/24 00:57:04;;;;;;;4.10;2.63;;;25.30;64.00;;;;;;5072707;28;20175;-70
2024/03/24 00:59:31;;;;;;;5.00;3.10;;;25.30;64.20;;;;;;5076100;28;20675;-71
2024/03/24 01:01:58;;;;;;;6.90;3.63;;;25.30;63.00;;;;;;5074313;28;20186;-71
2024/03/24 01:04:26;;;;;;;5.30;3.40;;;25.00;63.90;;;;;;5071850;28;20178;-73
2024/03/24 01:06:53;;;;;;;7.33;3.30;;;25.20;64.60;;;;;;5073235;28;20187;-69
2024/03/24 01:09:21;;;;;;;6.70;3.10;;;25.40;63.50;;;;;;5073968;28;20352;-71
2024/03/24 01:11:48;;;;;;;5.37;3.60;;;25.60;61.90;;;;;;5073766;28;20570;-71
2024/03/24 01:14:15;;;;;;;4.53;3.10;;;25.60;61.70;;;;;;5081359;28;20190;-71
2024/03/24 01:16:43;;;;;;;4.47;3.27;;;25.50;61.40;;;;;;5080479;28;20233;-70
2024/03/24 01:19:10;;;;;;;4.47;3.40;;;25.50;61.50;;;;;;5079835;28;20179;-70
2024/03/24 01:21:37;;;;;;;4.47;3.17;;;25.60;60.50;;;;;;5077583;28;20193;-72
2024/03/24 01:24:05;;;;;;;6.23;3.40;;;25.80;60.70;;;;;;5075859;28;20179;-71
2024/03/24 01:26:32;;;;;;;3.37;2.97;;;25.50;60.80;;;;;;5071338;28;20228;-70
2024/03/24 01:29:00;;;;;;;6.60;3.30;;;25.60;59.50;;;;;;5074845;28;20256;-70
2024/03/24 01:31:27;;;;;;;3.57;2.97;;;25.80;59.50;;;;;;5072775;28;20180;-70
2024/03/24 01:33:55;;;;;;;4.57;3.00;;;25.90;57.70;;;;;;5074770;28;20194;-72
2024/03/24 01:36:22;;;;;;;4.17;2.70;;;25.60;58.40;;;;;;5077933;28;20183;-71
2024/03/24 01:38:49;;;;;;;5.20;2.80;;;25.80;58.70;;;;;;5063163;28;20246;-72
2024/03/24 01:41:16;;;;;;;4.07;2.57;;;25.80;57.00;;;;;;5078734;28;20580;-72
2024/03/24 01:43:44;;;;;;;7.33;3.53;;;26.00;58.00;;;;;;5075527;28;20269;-72
2024/03/24 01:46:11;;;;;;;6.30;2.80;;;25.90;58.10;;;;;;5075239;28;20255;-72
2024/03/24 01:48:38;;;;;;;3.97;2.90;;;25.90;57.40;;;;;;5065049;28;20211;-72
2024/03/24 01:51:09;;;;;;;7.97;3.73;;;26.40;57.00;;;;;;5071880;28;20590;-72
2024/03/24 01:53:40;;;;;;;5.47;2.77;;;26.50;55.70;;;;;;5074401;28;20696;-71
2024/03/24 01:56:08;;;;;;;5.90;2.83;;;26.40;55.60;;;;;;5074782;28;20225;-73
2024/03/24 01:58:37;;;;;;;4.33;2.70;;;26.40;55.70;;;;;;5075692;28;20269;-72
2024/03/24 02:01:08;;;;;;;5.67;2.87;;;26.80;56.30;;;;;;5070942;28;20191;-73
2024/03/24 02:03:38;;;;;;;4.77;2.83;;;27.20;55.20;;;;;;5066536;28;20184;-76
2024/03/24 02:06:06;;;;;;;4.47;2.63;;;26.70;55.00;;;;;;5066370;28;20221;-72
2024/03/24 02:08:35;;;;;;;4.33;2.40;;;27.00;56.30;;;;;;5079560;28;20629;-73
2024/03/24 02:11:02;;;;;;;3.23;2.40;;;27.30;53.50;;;;;;5072891;28;20193;-72
2024/03/24 02:13:32;;;;;;;4.73;2.60;;;27.60;54.40;;;;;;5063814;28;20184;-72
2024/03/24 02:16:00;;;;;;;4.43;2.47;;;27.40;54.60;;;;;;5069495;28;20187;-74
2024/03/24 02:18:27;;;;;;;6.27;2.47;;;28.00;53.40;;;;;;5068120;28;20232;-71
2024/03/24 02:20:54;;;;;;;4.47;2.13;;;28.40;52.00;;;;;;5073699;28;20266;-75
2024/03/24 02:23:22;;;;;;;3.47;2.33;;;28.20;51.40;;;;;;5070666;28;20185;-71
2024/03/24 02:25:49;;;;;;;7.03;2.20;;;27.80;52.30;;;;;;5074873;28;20669;-72
2024/03/24 02:28:16;;;;;;;2.43;2.00;;;28.10;52.50;;;;;;5061342;28;20207;-74
2024/03/24 02:30:44;;;;;;;4.13;2.30;;;28.50;50.30;;;;;;5079613;28;20185;-72
2024/03/24 02:33:11;;;;;;;4.07;2.23;;;28.20;52.10;;;;;;5081879;28;20184;-73
2024/03/24 02:35:42;;;;;;;4.07;2.57;;;28.60;50.90;;;;;;5081023;28;20179;-72
2024/03/24 02:38:09;;;;;;;7.73;3.17;;;28.20;53.90;;;;;;5083325;28;20275;-74
2024/03/24 02:40:36;;;;;;;7.60;3.17;;;28.10;54.70;;;;;;5079118;28;20225;-73
2024/03/24 02:43:04;;;;;;;6.30;3.10;;;28.30;55.30;;;;;;5083489;28;20205;-69
2024/03/24 02:45:31;;;;;;;8.00;3.03;;;28.40;55.50;;;;;;5080703;28;20178;-77
2024/03/24 02:47:58;;;;;;;6.00;2.73;;;28.30;56.40;;;;;;5083345;28;20199;-78
2024/03/24 02:50:26;;;;;;;5.83;2.83;;;28.70;56.00;;;;;;5080939;28;20183;-72
2024/03/24 02:52:54;;;;;;;10.93;3.67;;;28.90;55.40;;;;;;5083561;28;20628;-74
2024/03/24 02:55:24;;;;;;;7.07;3.03;;;28.60;56.20;;;;;;5080355;28;20300;-78
2024/03/24 02:57:52;;;;;;;11.33;3.40;;;28.30;57.20;;;;;;5082917;28;20449;-74
2024/03/24 03:00:20;;;;;;;8.37;3.10;;;28.40;56.80;;;;;;5080484;28;20229;-74
2024/03/24 03:02:47;;;;;;;8.43;3.07;;;27.70;58.80;;;;;;5080755;28;20179;-74
2024/03/24 03:05:15;;;;;;;5.73;3.07;;;27.20;61.20;;;;;;5077226;28;20254;-77
2024/03/24 03:07:42;;;;;;;6.73;3.03;;;26.70;61.70;;;;;;5079410;28;20223;-74
2024/03/24 03:10:10;;;;;;;6.43;3.17;;;26.30;63.00;;;;;;5077217;28;20532;-72
2024/03/24 03:12:37;;;;;;;6.43;3.10;;;26.10;63.20;;;;;;5080143;28;20616;-75
2024/03/24 03:15:05;;;;;;;8.60;3.50;;;25.80;65.20;;;;;;5076658;28;20228;-73
2024/03/24 03:17:33;;;;;;;8.10;3.40;;;26.10;64.30;;;;;;5079095;28;20198;-72
2024/03/24 03:20:00;;;;;;;4.37;2.57;;;26.10;64.00;;;;;;5076771;28;20187;-75
2024/03/24 03:22:28;;;;;;;5.07;3.17;;;26.30;64.60;;;;;;5073865;28;20208;-73
2024/03/24 03:24:55;;;;;;;5.30;2.50;;;26.80;62.20;;;;;;5054003;28;20194;-73
2024/03/24 03:27:22;;;;;;;6.03;2.70;;;26.80;62.00;;;;;;5074436;28;20236;-73
2024/03/24 03:29:50;;;;;;;6.90;2.90;;;26.90;61.90;;;;;;5075363;28;20306;-71
2024/03/24 03:32:17;;;;;;;6.03;2.57;;;26.80;62.20;;;;;;5079580;28;20183;-70
2024/03/24 03:34:44;;;;;;;6.03;2.37;;;27.20;61.60;;;;;;5051921;28;20236;-76
2024/03/24 03:37:12;;;;;;;5.93;2.43;;;27.40;60.80;;;;;;5071443;28;20180;-72
2024/03/24 03:39:40;;;;;;;5.93;2.60;;;28.10;59.00;;;;;;5072905;28;20276;-71
2024/03/24 03:42:08;;;;;;;3.30;2.00;;;28.60;57.60;;;;;;5070570;28;20182;-73
2024/03/24 03:44:35;;;;;;;7.30;2.27;;;29.10;55.00;;;;;;5071550;28;20186;-71
2024/03/24 03:47:04;;;;;;;8.07;2.57;;;29.00;56.60;;;;;;5070185;28;20293;-70
2024/03/24 03:49:31;;;;;;;8.37;2.50;;;28.80;55.50;;;;;;5080235;28;20210;-71
2024/03/24 03:51:58;;;;;;;6.10;2.43;;;28.80;56.20;;;;;;5077227;28;20179;-73
2024/03/24 03:54:26;;;;;;;3.53;2.00;;;29.30;54.50;;;;;;5079815;28;20182;-72
2024/03/24 03:56:53;;;;;;;5.13;2.10;;;29.20;54.20;;;;;;5082511;28;20171;-72
2024/03/24 03:59:20;;;;;;;4.68;1.98;;;28.60;55.90;;;;;;5074005;28;20657;-74
2024/03/24 04:01:48;;;;;;;6.95;2.30;;;28.50;56.50;;;;;;5079610;28;20361;-73
2024/03/24 04:04:15;;;;;;;4.35;2.03;;;29.10;54.40;;;;;;5076893;28;20178;-74
2024/03/24 04:06:43;;;;;;;8.60;2.60;;;28.80;54.90;;;;;;5079472;28;20977;-73
2024/03/24 04:09:16;;;;;;;5.27;2.40;;;28.60;55.40;;;;;;5083172;28;20682;-74
2024/03/24 04:11:44;;;;;;;6.90;2.43;;;28.70;55.20;;;;;;5076749;28;20633;-72
2024/03/24 04:14:11;;;;;;;3.95;2.00;;;29.30;53.50;;;;;;5078840;28;20179;-73
2024/03/24 04:16:41;;;;;;;5.40;2.40;;;29.20;53.90;;;;;;5079578;28;20649;-71
2024/03/24 04:19:11;;;;;;;6.43;2.38;;;29.60;53.90;;;;;;5074624;28;20259;-73
2024/03/24 04:21:38;;;;;;;5.38;2.20;;;29.40;52.50;;;;;;5072031;28;20220;-74
2024/03/24 04:24:06;;;;;;;5.50;2.33;;;29.20;54.30;;;;;;5076684;28;20199;-73
2024/03/24 04:26:33;;;;;;;4.03;2.00;;;28.90;54.30;;;;;;5075892;28;20200;-72
2024/03/24 04:29:01;;;;;;;4.85;2.30;;;29.00;54.50;;;;;;5075795;28;20222;-73
2024/03/24 04:31:28;;;;;;;3.15;1.95;;;29.50;53.10;;;;;;5078440;28;20174;-72
2024/03/24 04:33:55;;;;;;;6.07;2.40;;;29.50;51.80;;;;;;5076926;28;20193;-75
2024/03/24 04:36:23;;;;;;;6.32;2.58;;;29.20;53.90;;;;;;5080830;28;20179;-73
2024/03/24 04:38:50;;;;;;;4.85;2.28;;;29.30;52.90;;;;;;5072071;28;20280;-74
2024/03/24 04:41:18;;;;;;;7.25;2.17;;;29.50;53.00;;;;;;5078075;28;20179;-72
2024/03/24 04:43:46;;;;;;;3.67;1.83;;;29.80;52.30;;;;;;5083905;28;20178;-72
2024/03/24 04:46:13;;;;;;;6.05;2.55;;;29.80;51.80;;;;;;5083571;28;20210;-74
2024/03/24 04:48:40;;;;;;;5.45;2.20;;;30.00;51.20;;;;;;5085022;28;20684;-72
2024/03/24 04:51:10;;;;;;;7.80;2.30;;;29.10;53.60;;;;;;5081782;28;20266;-73
2024/03/24 04:53:38;;;;;;;4.93;2.53;;;29.60;53.20;;;;;;5082725;28;20186;-75
2024/03/24 04:56:05;;;;;;;5.80;1.90;;;29.90;52.30;;;;;;5089074;28;20628;-75
2024/03/24 04:58:33;;;;;;;7.65;2.28;;;29.90;51.50;;;;;;5089496;28;20281;-77
2024/03/24 05:01:00;;;;;;;8.98;2.35;;;29.90;51.50;;;;;;5090018;28;20253;-73
2024/03/24 05:03:27;;;;;;;6.13;2.10;;;30.10;51.80;;;;;;5080371;28;20264;-73
2024/03/24 05:05:54;;;;;;;5.93;2.47;;;30.10;51.30;;;;;;5077335;28;20183;-76
2024/03/24 05:08:22;;;;;;;4.00;1.90;;;30.90;49.10;;;;;;5081363;28;20677;-73
2024/03/24 05:10:50;;;;;;;4.05;1.95;;;30.80;49.20;;;;;;5077892;28;20664;-77
2024/03/24 05:13:18;;;;;;;7.65;2.65;;;29.50;52.00;;;;;;5062289;28;20519;-74
2024/03/24 05:15:53;;;;;;;6.13;2.30;;;29.50;53.20;;;;;;5079174;28;20187;-71
2024/03/24 05:18:22;;;;;;;2.83;1.75;;;29.80;51.60;;;;;;5082825;28;20218;-75
2024/03/24 05:20:49;;;;;;;4.53;1.95;;;28.80;54.80;;;;;;5090931;28;20309;-73
2024/03/24 05:23:19;;;;;;;4.05;1.80;;;29.40;53.40;;;;;;5079949;28;20661;-73
2024/03/24 05:25:52;;;;;;;6.35;2.05;;;28.90;54.00;;;;;;5074408;28;20258;-70
2024/03/24 05:28:21;;;;;;;6.40;2.45;;;29.30;53.50;;;;;;5076052;28;20654;-71
2024/03/24 05:30:52;;;;;;;5.35;1.85;;;29.50;53.30;;;;;;5078103;28;20183;-71
2024/03/24 05:33:22;;;;;;;3.70;1.90;;;28.50;56.40;;;;;;5076675;28;20186;-76
2024/03/24 05:36:03;;;;;;;6.90;2.10;;;28.60;55.60;;;;;;5074407;28;20179;-72
2024/03/24 05:38:33;;;;;;;5.70;2.00;;;28.60;55.30;;;;;;5070130;28;20252;-74
2024/03/24 05:41:04;;;;;;;4.40;2.60;;;29.10;54.40;;;;;;5096293;28;20186;-72
2024/03/24 05:43:31;;;;;;;9.13;2.15;;;29.70;52.60;;;;;;5072830;28;20191;-75
2024/03/24 05:45:59;;;;;;;3.35;2.13;;;29.90;53.00;;;;;;5072546;28;20182;-71
2024/03/24 05:48:26;;;;;;;7.28;2.00;;;30.10;51.00;;;;;;5091011;28;20206;-72
2024/03/24 05:50:58;;;;;;;6.43;1.90;;;29.80;52.30;;;;;;5073983;28;20191;-71
2024/03/24 05:53:26;;;;;;;5.10;2.03;;;29.60;52.40;;;;;;5063107;28;20206;-72
2024/03/24 05:58:57;;;;;;;6.70;2.15;;;30.50;50.30;;;;;;5074158;28;20247;-70
2024/03/24 06:01:25;;;;;;;4.70;2.20;;;30.00;50.40;;;;;;5079803;28;20216;-73
2024/03/24 06:03:52;;;;;;;6.78;2.30;;;29.80;51.90;;;;;;5075874;28;20205;-73
2024/03/24 06:06:20;;;;;;;5.43;1.60;;;30.40;49.90;;;;;;5080338;28;20622;-72
2024/03/24 06:08:47;;;;;;;5.18;2.05;;;30.20;50.30;;;;;;5077909;28;20267;-72
2024/03/24 06:11:14;;;;;;;4.53;1.70;;;29.30;52.40;;;;;;5076741;28;20217;-75
2024/03/24 06:13:42;;;;;;;4.68;2.13;;;29.70;52.10;;;;;;5078718;28;20190;-73
2024/03/24 06:16:10;;;;;;;4.72;2.10;;;30.40;49.80;;;;;;5081031;28;20191;-73
2024/03/24 06:18:38;;;;;;;4.55;2.05;;;30.40;50.00;;;;;;5077711;28;20245;-72
2024/03/24 06:21:05;;;;;;;8.15;2.55;;;29.90;50.50;;;;;;5078526;28;20258;-71
2024/03/24 06:23:33;;;;;;;5.25;2.22;;;29.30;52.80;;;;;;5073799;28;20237;-73
2024/03/24 06:26:00;;;;;;;5.07;2.00;;;29.50;52.20;;;;;;5075588;28;20175;-73
2024/03/24 06:28:27;;;;;;;5.20;2.25;;;29.30;52.90;;;;;;5078588;28;20206;-74
2024/03/24 06:30:55;;;;;;;5.53;2.10;;;29.60;52.30;;;;;;5077609;28;20236;-73
2024/03/24 06:33:23;;;;;;;3.45;2.10;;;29.30;53.50;;;;;;5074555;28;20190;-74
2024/03/24 06:35:50;;;;;;;5.57;2.17;;;29.20;52.90;;;;;;5077082;28;20179;-74
2024/03/24 06:38:17;;;;;;;3.40;2.27;;;28.40;55.40;;;;;;5078302;28;20273;-74
2024/03/24 06:40:44;;;;;;;5.27;2.53;;;27.20;57.40;;;;;;5077427;28;20198;-73
2024/03/24 06:43:22;;;;;;;7.27;2.80;;;26.80;59.40;;;;;;5078670;28;20210;-76
2024/03/24 06:45:50;;;;;;;5.23;2.30;;;26.30;60.30;;;;;;5076220;28;20191;-75
2024/03/24 06:48:17;;;;;;;5.70;2.40;;;26.00;61.50;;;;;;5076729;28;20210;-69
2024/03/24 06:50:46;;;;;;;5.07;2.40;;;25.40;63.60;;;;;;5078310;28;20187;-71
2024/03/24 06:53:14;;;;;;;3.53;2.53;;;25.00;64.90;;;;;;5078573;28;20175;-71
2024/03/24 06:55:42;;;;;;;5.40;2.60;;;24.80;65.50;;;;;;5076683;28;20198;-72
2024/03/24 06:58:09;;;;;;;4.67;2.60;;;25.70;63.40;;;;;;5079819;28;20629;-71
2024/03/24 07:00:37;;;;;;;4.33;2.40;;;26.30;61.30;;;;;;5075674;28;20672;-72
2024/03/24 07:03:04;;;;;;;3.63;2.63;;;26.90;59.80;;;;;;5063835;28;20665;-71
2024/03/24 07:05:31;;;;;;;5.87;3.00;;;27.50;57.80;;;;;;5077321;28;20396;-78
2024/03/24 07:07:59;;;;;;;7.43;2.63;;;27.50;58.70;;;;;;5076154;28;20198;-75
2024/03/24 07:10:26;;;;;;;8.80;2.70;;;27.90;57.40;;;;;;5076610;28;20198;-75
2024/03/24 07:12:53;;;;;;;6.97;3.10;;;27.70;56.90;;;;;;5075135;28;20262;-70
2024/03/24 07:15:21;;;;;;;3.67;2.77;;;27.50;57.20;;;;;;5079205;28;20207;-75
2024/03/24 07:17:48;;;;;;;3.77;2.60;;;26.80;60.40;;;;;;5073432;28;20175;-72
2024/03/24 07:20:15;;;;;;;7.67;2.13;;;27.20;59.60;;;;;;5076460;28;20190;-73
2024/03/24 07:22:43;;;;;;;4.63;2.33;;;27.20;59.10;;;;;;5077482;28;20183;-74
2024/03/24 07:25:12;;;;;;;7.30;2.40;;;27.20;57.90;;;;;;5073846;28;20186;-75
2024/03/24 07:27:40;;;;;;;4.57;2.20;;;27.20;58.70;;;;;;5077758;28;20270;-75
2024/03/24 07:30:08;;;;;;;4.43;2.30;;;26.60;59.10;;;;;;5082214;28;20235;-75
2024/03/24 07:32:36;;;;;;;5.83;2.10;;;26.20;59.90;;;;;;5074391;28;20637;-75
2024/03/24 07:35:04;;;;;;;5.40;2.40;;;25.30;62.30;;;;;;5077400;28;20206;-73
2024/03/24 07:37:32;;;;;;;5.27;2.20;;;24.60;64.40;;;;;;5075148;28;20202;-71
2024/03/24 07:39:59;;;;;;;3.37;1.83;;;24.10;65.80;;;;;;5080943;28;20194;-72
2024/03/24 07:42:27;;;;;;;5.33;2.10;;;23.80;66.90;;;;;;5077743;28;20214;-73
2024/03/24 07:44:54;;;;;;;6.40;2.20;;;23.80;67.20;;;;;;5075285;28;20183;-72
2024/03/24 07:47:25;;;;;;;7.33;2.90;;;23.60;67.60;;;;;;5073448;28;20210;-71
2024/03/24 07:49:54;;;;;;;5.43;3.73;;;23.40;68.30;;;;;;5072420;28;20280;-74
2024/03/24 07:52:21;;;;;;;6.27;2.30;;;23.40;68.90;;;;;;5073365;28;20268;-72
2024/03/24 07:54:48;;;;;;;7.47;2.47;;;23.40;68.80;;;;;;5077539;28;20518;-72
2024/03/24 07:57:16;;;;;;;6.47;2.60;;;23.30;69.20;;;;;;5079492;28;20175;-77
2024/03/24 07:59:43;;;;;;;5.53;3.40;;;23.20;69.80;;;;;;5080197;28;20236;-71
2024/03/24 08:02:10;;;;;;;5.73;2.93;;;23.10;69.70;;;;;;5074131;28;20633;-74
2024/03/24 08:04:38;;;;;;;4.33;2.43;;;23.00;69.40;;;;;;5074535;28;20522;-72
2024/03/24 08:07:05;;;;;;;6.93;3.37;;;22.90;69.30;;;;;;5071246;28;20191;-72
2024/03/24 08:09:32;;;;;;;5.23;3.10;;;23.00;69.30;;;;;;5078540;28;20677;-73
2024/03/24 08:12:00;;;;;;;8.13;3.10;;;22.90;69.50;;;;;;5074378;28;20175;-72
2024/03/24 08:14:27;;;;;;;6.23;2.30;;;22.90;69.20;;;;;;5075902;28;20195;-72
2024/03/24 08:16:57;;;;;;;6.00;2.50;;;22.80;69.50;;;;;;5077593;28;20198;-72
2024/03/24 08:19:27;;;;;;;10.87;2.57;;;22.80;69.50;;;;;;5076484;28;20637;-71
2024/03/24 08:21:56;;;;;;;5.07;2.50;;;22.80;69.60;;;;;;5072402;28;20179;-72
2024/03/24 08:24:23;;;;;;;5.97;2.40;;;22.80;69.40;;;;;;5079879;28;20676;-72
2024/03/24 08:26:51;;;;;;;5.30;2.30;;;22.80;69.40;;;;;;5071356;28;20179;-73
2024/03/24 08:29:18;;;;;;;7.03;2.10;;;22.80;69.30;;;;;;5075316;28;20218;-73
2024/03/24 08:31:45;;;;;;;5.80;2.53;;;22.80;69.30;;;;;;5070842;28;20548;-72
2024/03/24 08:34:12;;;;;;;5.80;1.70;;;22.70;69.40;;;;;;5076065;28;20594;-71
2024/03/24 08:36:40;;;;;;;4.70;1.80;;;22.60;69.00;;;;;;5074203;28;20188;-72
2024/03/24 08:39:09;;;;;;;4.97;2.03;;;22.50;69.20;;;;;;5055176;28;20239;-77
2024/03/24 08:41:36;;;;;;;3.67;1.80;;;22.50;69.80;;;;;;5058077;28;20176;-71
2024/03/24 08:44:03;;;;;;;6.23;2.20;;;22.50;69.90;;;;;;5055771;28;20642;-72
2024/03/24 08:46:31;;;;;;;7.87;1.97;;;22.50;70.30;;;;;;5056080;28;20190;-73
2024/03/24 08:48:58;;;;;;;4.07;1.87;;;22.40;70.30;;;;;;5057621;28;20254;-73
2024/03/24 08:51:25;;;;;;;4.53;1.83;;;22.40;70.50;;;;;;5054063;28;20183;-73
2024/03/24 08:53:52;;;;;;;6.47;2.23;;;22.30;70.40;;;;;;5055416;28;20547;-75
2024/03/24 08:56:20;;;;;;;3.63;1.83;;;22.30;70.80;;;;;;5053947;28;20665;-74
2024/03/24 08:58:47;;;;;;;3.73;1.80;;;22.30;71.20;;;;;;5053657;28;21091;-74
2024/03/24 09:01:15;;;;;;;6.63;2.00;;;22.30;71.40;;;;;;5057871;28;20183;-73
2024/03/24 09:03:43;;;;;;;3.43;1.70;;;22.30;71.50;;;;;;5053123;28;20192;-80
2024/03/24 09:06:10;;;;;;;4.83;2.00;;;22.30;71.50;;;;;;5054435;28;20638;-73
2024/03/24 09:08:38;;;;;;;6.67;1.97;;;22.30;71.70;;;;;;5060248;28;20219;-73
2024/03/24 09:11:05;;;;;;;7.93;1.90;;;22.20;71.70;;;;;;5049966;28;20847;-76
2024/03/24 09:13:38;;;;;;;5.50;2.07;;;22.20;71.90;;;;;;5058267;28;20581;-74
2024/03/24 09:16:06;;;;;;;3.90;1.50;;;22.20;72.00;;;;;;5049584;28;20188;-73
2024/03/24 09:18:34;;;;;;;5.33;1.80;;;22.20;72.30;;;;;;5056260;28;20176;-75
2024/03/24 09:21:06;;;;;;;5.83;1.80;;;22.20;72.40;;;;;;5053358;28;20188;-76
2024/03/24 09:23:33;;;;;;;4.50;1.60;;;22.20;72.80;;;;;;5054719;28;20190;-73
2024/03/24 09:26:01;;;;;;;4.13;2.13;;;22.20;73.20;;;;;;5050581;28;20207;-73
2024/03/24 09:28:28;;;;;;;5.07;2.33;;;22.20;73.50;;;;;;5058513;28;20326;-75
2024/03/24 09:30:59;;;;;;;9.00;2.37;;;22.10;73.80;;;;;;5052832;28;20589;-72
2024/03/24 09:33:27;;;;;;;5.70;1.80;;;22.20;74.20;;;;;;5060650;28;20661;-75
2024/03/24 09:35:59;;;;;;;5.33;2.07;;;22.10;74.60;;;;;;5052175;28;20184;-77
2024/03/24 09:38:27;;;;;;;4.27;2.00;;;22.10;74.80;;;;;;5079926;28;20296;-75
2024/03/24 09:40:54;;;;;;;5.57;2.13;;;22.10;75.10;;;;;;5053686;28;20183;-76
2024/03/24 09:43:22;;;;;;;4.73;2.10;;;22.10;75.30;;;;;;5062464;28;20192;-76
2024/03/24 09:45:50;;;;;;;7.53;2.27;;;22.10;75.50;;;;;;5053929;28;21508;-75
2024/03/24 09:48:18;;;;;;;6.17;2.00;;;22.10;75.60;;;;;;5063063;28;20307;-76
2024/03/24 09:50:45;;;;;;;5.60;1.90;;;22.00;75.90;;;;;;5053600;28;20198;-77
2024/03/24 09:53:12;;;;;;;3.23;1.70;;;22.00;76.10;;;;;;5060595;28;20612;-74
2024/03/24 09:55:40;;;;;;;3.97;1.70;;;22.00;76.20;;;;;;5055374;28;20234;-76
2024/03/24 09:58:08;;;;;;;4.43;1.80;;;22.00;76.40;;;;;;5062374;28;20196;-74
2024/03/24 10:00:36;;;;;;;8.17;2.00;;;22.00;76.50;;;;;;5053772;28;20198;-74
2024/03/24 10:03:03;;;;;;;6.27;1.90;;;21.90;76.60;;;;;;5058130;28;20188;-74
2024/03/24 10:05:32;;;;;;;4.70;1.80;;;21.90;76.80;;;;;;5052284;28;20269;-78
2024/03/24 10:08:03;;;;;;;3.83;1.83;;;21.90;77.00;;;;;;5061486;28;21172;-77
2024/03/24 10:10:31;;;;;;;9.27;2.27;;;21.90;77.20;;;;;;5051605;28;20266;-73
2024/03/24 10:13:04;;;;;;;4.30;1.83;;;22.00;77.50;;;;;;5054616;28;20195;-76
2024/03/24 10:15:33;;;;;;;3.33;1.70;;;21.90;77.80;;;;;;5054102;28;20192;-73
2024/03/24 10:18:09;;;;;;;6.07;2.13;;;21.90;78.10;;;;;;5058411;28;20197;-76
2024/03/24 10:20:38;;;;;;;8.17;2.60;;;21.90;78.40;;;;;;5053053;28;20182;-74
2024/03/24 10:23:06;;;;;;;4.27;1.87;;;21.90;78.80;;;;;;5058892;28;20204;-77
2024/03/24 10:25:34;;;;;;;7.53;2.10;;;21.80;79.30;;;;;;5052348;28;20665;-76
2024/03/24 10:28:02;;;;;;;9.07;2.33;;;21.80;79.70;;;;;;5054454;28;20183;-77
2024/03/24 10:30:29;;;;;;;5.90;2.53;;;21.80;79.90;;;;;;5065802;28;20192;-74
2024/03/24 10:32:56;;;;;;;8.03;3.10;;;21.80;80.10;;;;;;5055707;28;20188;-75
2024/03/24 10:35:23;;;;;;;4.03;2.70;;;21.80;80.40;;;;;;5055494;28;20198;-74
2024/03/24 10:37:51;;;;;;;7.07;2.73;;;21.80;80.40;;;;;;5065129;28;20697;-73
2024/03/24 10:40:18;;;;;;;8.30;3.40;;;21.80;80.80;;;;;;5074896;28;20652;-71
2024/03/24 10:42:48;;;;;;;6.87;4.20;;;21.70;81.00;;;;;;5074545;28;20179;-72
2024/03/24 10:45:28;;;;;;;7.60;6.03;;;21.70;81.30;;;;;;5076159;28;20179;-74
2024/03/24 10:48:07;;;;;;;7.67;6.43;;;21.70;81.40;;;;;;5077405;28;20175;-72
2024/03/24 10:50:38;;;;;;;8.37;7.17;;;21.70;81.60;;;;;;5081224;28;20629;-72
2024/03/24 10:53:14;;;;;;;10.27;9.20;;;21.70;81.70;;;;;;5087474;28;20167;-72
2024/03/24 10:55:43;;;;;;;10.73;10.03;;;21.70;81.90;;;;;;5076809;28;20316;-72
2024/03/24 10:58:11;;;;;;;12.70;11.40;;;21.70;81.90;;;;;;5083025;28;20258;-71
2024/03/24 11:00:38;;;;;;;18.07;13.50;;;21.60;82.10;;;;;;5074186;28;20186;-72
2024/03/24 11:03:08;;;;;;;14.37;13.13;;;21.60;82.00;;;;;;5080574;28;20539;-72
2024/03/24 11:05:38;;;;;;;16.87;15.40;;;21.60;82.10;;;;;;5074064;28;20808;-72
2024/03/24 11:08:06;;;;;;;17.33;15.53;;;21.60;82.10;;;;;;5086350;28;20187;-72
2024/03/24 11:10:35;;;;;;;17.43;16.10;;;21.60;82.40;;;;;;5077372;28;20187;-71
2024/03/24 11:13:04;;;;;;;20.07;18.30;;;21.50;82.40;;;;;;5084280;28;20194;-73
2024/03/24 11:15:33;;;;;;;19.53;18.13;;;21.60;82.40;;;;;;5082542;28;20575;-74
2024/03/24 11:18:03;;;;;;;20.63;19.13;;;21.50;82.60;;;;;;5083781;28;20630;-73
2024/03/24 11:20:31;;;;;;;22.17;20.20;;;21.50;82.60;;;;;;5079576;28;20179;-73
2024/03/24 11:22:58;;;;;;;22.50;20.50;;;21.50;82.70;;;;;;5080340;28;20233;-75
2024/03/24 11:25:34;;;;;;;21.23;19.63;;;21.50;82.50;;;;;;5061010;28;20179;-72
2024/03/24 11:28:01;;;;;;;21.07;19.33;;;21.50;82.50;;;;;;5058069;28;20222;-74
2024/03/24 11:30:34;;;;;;;20.57;18.83;;;21.50;82.30;;;;;;5061310;28;20194;-71
2024/03/24 11:33:02;;;;;;;19.60;18.20;;;21.50;82.30;;;;;;5080796;28;20171;-71
2024/03/24 11:35:30;;;;;;;20.60;19.20;;;21.50;82.20;;;;;;5079652;28;20186;-71
2024/03/24 11:38:03;;;;;;;19.60;18.10;;;21.50;82.30;;;;;;5083282;28;20898;-71
2024/03/24 11:40:36;;;;;;;20.33;18.90;;;21.50;82.20;;;;;;5076745;28;20652;-70
2024/03/24 11:43:04;;;;;;;19.30;17.73;;;21.50;82.00;;;;;;5082764;28;20187;-71
2024/03/24 11:45:35;;;;;;;18.97;17.57;;;21.50;82.10;;;;;;5079362;28;20236;-72
2024/03/24 11:48:19;;;;;;;17.47;16.20;;;21.50;82.00;;;;;;5085781;28;20187;-71
2024/03/24 11:50:47;;;;;;;18.90;17.50;;;21.50;82.00;;;;;;5080143;28;20245;-73
2024/03/24 11:53:18;;;;;;;18.43;16.83;;;21.40;82.00;;;;;;5084098;28;20179;-73
2024/03/24 11:55:46;;;;;;;18.80;17.30;;;21.40;82.00;;;;;;5076314;28;20542;-71
2024/03/24 11:58:13;;;;;;;19.30;18.07;;;21.30;82.10;;;;;;5086747;28;20222;-71
2024/03/24 12:00:41;;;;;;;20.63;19.13;;;21.30;82.00;;;;;;5078999;28;20269;-71
2024/03/24 12:03:11;;;;;;;22.13;20.43;;;21.20;82.20;;;;;;5078926;28;20179;-72
2024/03/24 12:05:38;;;;;;;22.37;20.90;;;21.20;82.20;;;;;;5080159;28;20266;-71
2024/03/24 12:08:06;;;;;;;22.40;20.77;;;21.10;82.60;;;;;;5087050;28;20180;-70
2024/03/24 12:10:34;;;;;;;23.43;21.93;;;21.10;82.80;;;;;;5081496;28;20235;-71
2024/03/24 12:13:03;;;;;;;23.60;22.10;;;21.10;83.00;;;;;;5082516;28;20266;-73
2024/03/24 12:15:30;;;;;;;24.33;22.43;;;21.00;82.90;;;;;;5079822;28;20261;-71
2024/03/24 12:18:11;;;;;;;23.57;22.07;;;21.00;83.00;;;;;;5083108;28;20263;-73
2024/03/24 12:20:39;;;;;;;24.23;22.83;;;21.00;83.30;;;;;;5082750;28;20170;-72
2024/03/24 12:23:07;;;;;;;25.23;23.43;;;21.00;83.40;;;;;;5083792;28;20175;-73
2024/03/24 12:25:35;;;;;;;25.27;23.87;;;21.00;83.30;;;;;;5083075;28;20616;-72
2024/03/24 12:28:02;;;;;;;23.67;21.87;;;20.90;83.40;;;;;;5082015;28;20182;-70
2024/03/24 12:30:30;;;;;;;27.67;25.83;;;20.80;83.50;;;;;;5083316;28;20183;-73
2024/03/24 12:33:00;;;;;;;26.40;24.30;;;20.80;83.60;;;;;;5073418;28;20196;-74
2024/03/24 12:35:28;;;;;;;27.23;25.53;;;20.80;83.80;;;;;;5081728;28;20755;-74
2024/03/24 12:37:56;;;;;;;29.03;27.03;;;20.80;84.00;;;;;;5091661;28;20247;-72
2024/03/24 12:40:24;;;;;;;30.40;28.40;;;20.80;84.00;;;;;;5084113;28;21448;-72
2024/03/24 12:42:52;;;;;;;29.87;27.87;;;20.80;84.20;;;;;;5080440;28;20282;-75
2024/03/24 12:45:19;;;;;;;28.83;27.13;;;20.80;84.30;;;;;;5083017;28;20183;-74
2024/03/24 12:47:47;;;;;;;30.97;28.90;;;20.70;84.40;;;;;;5079912;28;20273;-73
2024/03/24 12:50:32;;;;;;;28.37;26.67;;;20.60;84.30;;;;;;5077682;28;20222;-74